aviador You're here:

UBBB Decoded Metar

BAKU in AZERBAIJAN
Report Time2017-12-17 00:00:00
UTC Time2017-12-17 00:20:41
Flight Rules mvfr MVFR
Wind100° at 06 kt
W.Decomp.*RWY 16: 2.6 kt HW 5.4 kt LCW
RWY 18: 0.6 kt HW 6 kt LCW
W.Rank100° ranks 27
Current wind is above 100° avg. (5.8)
Visibility9999 m
Phenomena:N/A
Clouds:Broken 013 Hf
Overcast 028 Hf
Expected CloudBase > 400 ft AGL from Temp-Dew spread
Ceiling1,300 ft
Temp09°C (ISA -6)
Dew Point08°C (94% RH)
AAT6.4°C
QNH1025 hPa
Density Alt-1,007 ft
Elevation-20 ft
Report Wrong Elevation
Raw Report
UBBB 170000Z 10006KT 9999 BKN013 OVC028 09/08 Q1025 R88/190065
NOSIG=

Extra information for UBBB:More info

Metar Taf Metar & Taf Last 4 Metars F.Rules Stats Wind Profile Meteogram Temp Stats Airport Information Weather charts Add Link Nearby VenuesMetar ALERT Operation Metar Decoded Social comments